首页
METAR-TAF:

METAR-TAF

机场 :

Pope Air Force Base

費耶特維爾 / Pope, 北卡罗来纳州, 美国

纬度: 35-10N, 经度: 079-02W, 海拔: 61米

当前天气观测

该预报发布于17分钟前的07:56 UTC
静风
温度 8°C
湿度 100%
气压 1019 hPa
能見度: 16.1公里
多云层高于400英尺
阴天层高于4100英尺

METAR: KPOB 170756Z AUTO 00000KT 10SM BKN004 OVC041 08/08 A3009 RMK AO2 DZE0658RAB04E08DZB08E09RAB09E28DZB28E36 SLP193 P0001 T00820078 $

时间: 03:13 (08:13 UTC)

预报

该预报发布于3小时和16分钟前的04:57 UTC
预报有效从17日的 04点(UTC)到 18日的 08点(UTC)
风速6节,风向多变
能见度10公里或以上
多云层高于500英尺
多云层高于2500英尺
多云层高于4000英尺
短暂存在
从 17日的 04点(UTC)到 17日的 10点(UTC)
能見度: 8000
散云层高于500英尺
多云层高于2500英尺
阴天层高于4000英尺
小阵雨, 轻雾
成为
从 17日的 09点(UTC)到 17日的 10点(UTC)
风速6节,风向多变
能見度: 8000
多云层高于700英尺
多云层高于4000英尺
轻雾
成为
从 17日的 15点(UTC)到 17日的 16点(UTC)
风速6节,风向东转东北
能见度10公里或以上
少量云层高于6000英尺

TAF: KPOB 170457Z 1704/1808 VRB06KT 9999 BKN005 BKN025 BKN040 QNH3009INS TEMPO 1704/1710 8000 -SHRA BR SCT005 BKN025 OVC040 BECMG 1709/1710 VRB06KT 8000 BR BKN007 BKN040 QNH3010INS BECMG 1715/1716 07006KT 9999 NSW FEW060 QNH3012INS TX17/1720Z TN06/1708Z

超过4000个机场的气象观测和天气预报(METAR&TAF报告)。

可查询的气象台以黄色和红色小点在地图上表示。

将鼠标移到小点上方,可查看气象台名称。

然后点击查看天气观测和预报。

如需切换地图:点击带黑十字的绿色按钮放大地图;点击带横线的绿色按钮缩小地图;或者点击绿色箭头查看邻近地区的地图。


METAR-TAF: